Time;durP1;ratioP1;P1;durP2;ratioP2;P2;SDS_P1;SDS_P2;PMS_P1;PMS_P2;Temp;Humidity;BMP_temperature;BMP_pressure;BME280_temperature;BME280_humidity;BME280_pressure;Samples;Min_cycle;Max_cycle;Signal;HPM_P1;HPM_P2
2022/12/24 00:01:01;;;;;;;18.33;4.03;;;10.50;99.90;;;;;;5080331;28;20549;-62
2022/12/24 00:03:28;;;;;;;20.53;3.90;;;10.50;99.90;;;;;;5077601;28;20206;-63
2022/12/24 00:05:55;;;;;;;22.90;3.80;;;10.50;99.90;;;;;;5078662;28;20215;-62
2022/12/24 00:08:22;;;;;;;18.73;3.03;;;10.40;99.90;;;;;;5078268;28;20593;-62
2022/12/24 00:10:52;;;;;;;26.97;4.10;;;10.40;99.90;;;;;;5078514;28;20216;-63
2022/12/24 00:13:20;;;;;;;23.23;4.30;;;10.40;99.90;;;;;;5075956;28;20200;-62
2022/12/24 00:15:47;;;;;;;20.27;3.97;;;10.40;99.90;;;;;;5079571;28;20277;-62
2022/12/24 00:18:14;;;;;;;19.77;3.50;;;10.40;99.90;;;;;;5078685;28;20623;-62
2022/12/24 00:20:47;;;;;;;19.90;4.43;;;10.40;99.90;;;;;;5072505;28;20204;-64
2022/12/24 00:23:16;;;;;;;18.93;4.10;;;10.40;99.90;;;;;;5079779;28;20319;-63
2022/12/24 00:25:43;;;;;;;21.17;4.43;;;10.40;99.90;;;;;;5075851;28;20210;-63
2022/12/24 00:28:11;;;;;;;17.70;3.57;;;10.40;99.90;;;;;;5077700;28;20282;-63
2022/12/24 00:30:39;;;;;;;24.67;3.50;;;10.40;99.90;;;;;;5076558;28;20606;-62
2022/12/24 00:33:06;;;;;;;15.83;3.07;;;10.40;99.90;;;;;;5076986;28;20240;-63
2022/12/24 00:35:34;;;;;;;20.20;3.13;;;10.40;99.90;;;;;;5080219;28;20316;-62
2022/12/24 00:38:02;;;;;;;21.40;3.47;;;10.30;99.90;;;;;;5076305;28;20657;-63
2022/12/24 00:40:29;;;;;;;22.00;4.10;;;10.30;99.90;;;;;;5079509;28;20199;-63
2022/12/24 00:42:56;;;;;;;17.43;3.23;;;10.30;99.90;;;;;;5077537;28;20302;-62
2022/12/24 00:45:23;;;;;;;12.87;3.37;;;10.20;99.90;;;;;;5077974;28;20237;-64
2022/12/24 00:47:50;;;;;;;25.53;4.43;;;10.30;99.90;;;;;;5079106;28;20215;-63
2022/12/24 00:50:17;;;;;;;26.13;4.77;;;10.30;99.90;;;;;;5077432;28;20226;-62
2022/12/24 00:52:43;;;;;;;16.20;4.07;;;10.30;99.90;;;;;;5079380;28;20205;-62
2022/12/24 00:55:10;;;;;;;20.10;4.63;;;10.30;99.90;;;;;;5078405;28;20288;-62
2022/12/24 00:57:37;;;;;;;22.10;3.93;;;10.30;99.90;;;;;;5073173;28;20239;-62
2022/12/24 01:00:04;;;;;;;25.93;3.73;;;10.30;99.90;;;;;;5078973;28;20201;-62
2022/12/24 01:02:31;;;;;;;27.93;3.90;;;10.40;99.90;;;;;;5078278;28;20205;-62
2022/12/24 01:05:10;;;;;;;20.00;3.70;;;10.40;99.90;;;;;;5078110;28;20217;-63
2022/12/24 01:07:40;;;;;;;19.03;3.00;;;10.40;99.90;;;;;;5076988;28;20210;-62
2022/12/24 01:10:08;;;;;;;19.70;3.60;;;10.40;99.90;;;;;;5078650;28;20785;-63
2022/12/24 01:12:36;;;;;;;18.20;3.20;;;10.40;99.90;;;;;;5076362;28;20213;-62
2022/12/24 01:15:04;;;;;;;17.20;3.10;;;10.40;99.90;;;;;;5075427;28;20290;-62
2022/12/24 01:17:32;;;;;;;14.17;3.70;;;10.40;99.90;;;;;;5072583;28;20716;-62
2022/12/24 01:19:59;;;;;;;18.03;3.50;;;10.30;99.90;;;;;;5073055;28;20236;-62
2022/12/24 01:22:26;;;;;;;20.23;3.37;;;10.30;99.90;;;;;;5063352;28;20279;-63
2022/12/24 01:24:53;;;;;;;25.60;3.93;;;10.30;99.90;;;;;;5077391;28;20284;-62
2022/12/24 01:27:20;;;;;;;17.60;3.37;;;10.30;99.90;;;;;;5075680;28;20286;-63
2022/12/24 01:29:46;;;;;;;18.80;3.30;;;10.30;99.90;;;;;;5077230;28;20224;-62
2022/12/24 01:32:13;;;;;;;18.27;4.03;;;10.30;99.90;;;;;;5076789;28;20249;-62
2022/12/24 01:34:40;;;;;;;16.10;3.30;;;10.20;99.90;;;;;;5076649;28;20231;-63
2022/12/24 01:37:07;;;;;;;21.67;3.57;;;10.10;99.90;;;;;;5078585;28;20619;-66
2022/12/24 01:39:34;;;;;;;19.53;4.57;;;10.10;99.90;;;;;;5079826;28;20214;-63
2022/12/24 01:44:50;;;;;;;24.40;3.80;;;10.10;99.90;;;;;;5081296;28;20216;-62
2022/12/24 01:47:26;;;;;;;13.20;2.80;;;10.10;99.90;;;;;;5076517;28;20574;-62
2022/12/24 01:49:55;;;;;;;17.00;3.90;;;10.10;99.90;;;;;;5083635;28;20663;-61
2022/12/24 01:52:30;;;;;;;23.50;3.77;;;10.10;99.90;;;;;;5079835;28;20211;-62
2022/12/24 01:55:02;;;;;;;21.77;3.27;;;10.10;99.90;;;;;;5083144;28;20292;-62
2022/12/24 01:57:58;;;;;;;18.83;4.10;;;10.10;99.90;;;;;;5077845;28;20227;-63
2022/12/24 02:00:25;;;;;;;20.07;3.47;;;10.00;99.90;;;;;;5082442;28;20200;-63
2022/12/24 02:02:53;;;;;;;18.40;3.30;;;10.00;99.90;;;;;;5079994;28;20210;-62
2022/12/24 02:05:20;;;;;;;19.33;4.27;;;10.00;99.90;;;;;;5082026;28;20643;-62
2022/12/24 02:07:47;;;;;;;18.43;3.27;;;10.00;99.90;;;;;;5080788;28;20204;-64
2022/12/24 02:10:15;;;;;;;16.83;4.57;;;9.90;99.90;;;;;;5082958;28;20433;-62
2022/12/24 02:12:44;;;;;;;19.70;3.57;;;10.00;99.90;;;;;;5081045;28;20929;-62
2022/12/24 02:15:13;;;;;;;25.00;3.23;;;10.00;99.90;;;;;;5082328;28;20272;-62
2022/12/24 02:18:04;;;;;;;15.77;3.40;;;10.10;99.90;;;;;;5080274;28;20244;-62
2022/12/24 02:21:14;;;;;;;31.83;4.20;;;10.10;99.90;;;;;;5079799;28;20264;-62
2022/12/24 02:23:54;;;;;;;22.87;3.87;;;10.10;99.90;;;;;;5082963;28;20613;-63
2022/12/24 02:26:36;;;;;;;22.80;4.83;;;10.20;99.90;;;;;;5082124;28;20224;-62
2022/12/24 02:29:29;;;;;;;23.20;3.67;;;10.20;99.90;;;;;;5079357;28;20203;-61
2022/12/24 02:32:10;;;;;;;20.87;4.40;;;10.20;99.90;;;;;;5081642;28;20222;-62
2022/12/24 02:35:00;;;;;;;21.23;3.97;;;10.30;99.90;;;;;;5076529;28;20208;-63
2022/12/24 02:37:46;;;;;;;24.83;4.30;;;10.30;99.90;;;;;;5082424;28;20214;-62
2022/12/24 02:40:15;;;;;;;26.83;4.37;;;10.30;99.90;;;;;;5078389;28;20228;-62
2022/12/24 02:42:49;;;;;;;17.50;4.37;;;10.30;99.90;;;;;;5075768;28;20657;-64
2022/12/24 02:45:19;;;;;;;18.67;3.53;;;10.30;99.90;;;;;;5072379;28;20209;-63
2022/12/24 02:47:47;;;;;;;20.97;4.33;;;10.30;99.90;;;;;;5077902;28;20201;-63
2022/12/24 02:50:16;;;;;;;24.70;5.00;;;10.40;99.90;;;;;;5078854;28;20201;-62
2022/12/24 02:52:45;;;;;;;21.90;4.23;;;10.40;99.90;;;;;;5075618;28;20254;-62
2022/12/24 02:55:19;;;;;;;24.50;5.00;;;10.40;99.90;;;;;;5077801;28;20688;-62
2022/12/24 02:58:30;;;;;;;23.67;4.17;;;10.40;99.90;;;;;;5075284;28;20199;-63
2022/12/24 03:01:21;;;;;;;18.67;4.37;;;10.50;99.90;;;;;;5078613;28;20212;-64
2022/12/24 03:04:14;;;;;;;20.40;4.10;;;10.50;99.90;;;;;;5076013;28;20213;-62
2022/12/24 03:06:50;;;;;;;19.97;4.57;;;10.50;99.90;;;;;;5078507;28;20218;-65
2022/12/24 03:09:29;;;;;;;18.13;4.00;;;10.50;99.90;;;;;;5077534;28;20278;-62
2022/12/24 03:12:33;;;;;;;18.87;4.00;;;10.50;99.90;;;;;;5078402;28;20231;-62
2022/12/24 03:15:02;;;;;;;19.57;4.33;;;10.50;99.90;;;;;;5070367;28;20222;-63
2022/12/24 03:17:30;;;;;;;18.60;4.70;;;10.60;99.90;;;;;;5080282;28;20264;-63
2022/12/24 03:19:57;;;;;;;17.90;3.87;;;10.60;99.90;;;;;;5076322;28;20205;-63
2022/12/24 03:22:25;;;;;;;15.03;3.90;;;10.60;99.90;;;;;;5077567;28;20225;-64
2022/12/24 03:24:52;;;;;;;18.87;3.83;;;10.60;99.90;;;;;;5078513;28;20237;-63
2022/12/24 03:27:19;;;;;;;21.90;3.97;;;10.60;99.90;;;;;;5077756;28;20333;-63
2022/12/24 03:29:46;;;;;;;24.57;4.40;;;10.60;99.90;;;;;;5077612;28;20222;-63
2022/12/24 03:32:13;;;;;;;25.17;4.70;;;10.60;99.90;;;;;;5077480;28;20228;-62
2022/12/24 03:34:40;;;;;;;25.27;4.93;;;10.70;99.90;;;;;;5076817;28;20278;-62
2022/12/24 03:37:06;;;;;;;24.87;4.57;;;10.70;99.90;;;;;;5075226;28;20333;-63
2022/12/24 03:39:33;;;;;;;19.77;3.67;;;10.70;99.90;;;;;;5076843;28;20242;-62
2022/12/24 03:42:00;;;;;;;16.20;5.13;;;10.70;99.90;;;;;;5077764;28;20693;-62
2022/12/24 03:44:27;;;;;;;19.50;4.43;;;10.70;99.90;;;;;;5077144;28;20191;-63
2022/12/24 03:46:54;;;;;;;17.90;4.50;;;10.70;99.90;;;;;;5076665;28;20213;-62
2022/12/24 03:49:20;;;;;;;14.50;4.03;;;10.70;99.90;;;;;;5075435;28;20376;-64
2022/12/24 03:51:47;;;;;;;18.97;4.13;;;10.70;99.90;;;;;;5078149;28;20632;-62
2022/12/24 03:54:14;;;;;;;25.00;4.60;;;10.80;99.90;;;;;;5078161;28;20718;-62
2022/12/24 03:56:41;;;;;;;18.73;4.13;;;10.80;99.90;;;;;;5073788;28;20268;-63
2022/12/24 03:59:08;;;;;;;23.20;4.03;;;10.80;99.90;;;;;;5074361;28;20208;-65
2022/12/24 04:01:35;;;;;;;24.67;4.40;;;10.90;99.90;;;;;;5089805;28;20209;-64
2022/12/24 04:04:02;;;;;;;17.10;4.70;;;10.90;99.90;;;;;;5076457;28;20208;-62
2022/12/24 04:06:29;;;;;;;15.77;3.70;;;10.90;99.90;;;;;;5076279;28;20222;-64
2022/12/24 04:08:55;;;;;;;20.87;4.40;;;10.90;99.90;;;;;;5076259;28;20293;-62
2022/12/24 04:11:22;;;;;;;19.80;4.17;;;10.90;99.90;;;;;;5076083;28;20292;-62
2022/12/24 04:13:49;;;;;;;18.80;3.70;;;10.90;99.90;;;;;;5078732;28;20298;-62
2022/12/24 04:16:16;;;;;;;19.20;4.37;;;11.00;99.90;;;;;;5078236;28;20233;-62
2022/12/24 04:18:43;;;;;;;19.03;4.80;;;11.00;99.90;;;;;;5077031;28;20291;-62
2022/12/24 04:21:11;;;;;;;18.17;4.70;;;11.00;99.90;;;;;;5076113;28;20199;-62
2022/12/24 04:23:39;;;;;;;22.03;4.37;;;11.00;99.90;;;;;;5075191;28;20728;-62
2022/12/24 04:26:09;;;;;;;20.13;4.17;;;11.00;99.90;;;;;;5075439;28;20254;-62
2022/12/24 04:28:37;;;;;;;15.07;4.07;;;11.00;99.90;;;;;;5070193;28;20215;-62
2022/12/24 04:31:07;;;;;;;17.27;4.13;;;11.10;99.90;;;;;;5078644;28;20642;-62
2022/12/24 04:33:35;;;;;;;18.77;4.20;;;11.00;99.90;;;;;;5075535;28;20213;-62
2022/12/24 04:36:04;;;;;;;27.20;4.43;;;11.10;99.90;;;;;;5077868;28;20263;-63
2022/12/24 04:38:32;;;;;;;16.70;5.57;;;11.00;99.90;;;;;;5076898;28;20243;-62
2022/12/24 04:41:03;;;;;;;20.70;4.60;;;11.00;99.90;;;;;;5075580;28;20195;-63
2022/12/24 04:43:30;;;;;;;26.53;4.23;;;11.10;99.90;;;;;;5074521;28;20230;-62
2022/12/24 04:46:05;;;;;;;18.03;4.37;;;11.00;99.90;;;;;;5075586;28;20215;-62
2022/12/24 04:48:32;;;;;;;23.30;5.07;;;11.00;99.90;;;;;;5075613;28;20258;-64
2022/12/24 04:51:03;;;;;;;22.40;4.37;;;11.00;99.90;;;;;;5078499;28;20200;-62
2022/12/24 04:53:31;;;;;;;20.30;4.53;;;11.10;99.90;;;;;;5074874;28;20214;-63
2022/12/24 04:55:58;;;;;;;20.80;5.20;;;11.00;99.90;;;;;;5078294;28;20205;-62
2022/12/24 04:58:25;;;;;;;20.10;4.00;;;11.00;99.90;;;;;;5076436;28;20207;-63
2022/12/24 05:00:52;;;;;;;24.13;4.53;;;11.00;99.90;;;;;;5079890;28;20215;-64
2022/12/24 05:03:19;;;;;;;15.47;4.07;;;11.10;99.90;;;;;;5078691;28;20222;-65
2022/12/24 05:05:46;;;;;;;19.57;3.67;;;11.10;99.90;;;;;;5079222;28;20304;-62
2022/12/24 05:08:13;;;;;;;23.43;4.73;;;11.10;99.90;;;;;;5079208;28;20198;-62
2022/12/24 05:10:40;;;;;;;18.07;4.37;;;11.10;99.90;;;;;;5079339;28;20288;-62
2022/12/24 05:13:07;;;;;;;24.47;4.80;;;11.10;99.90;;;;;;5079080;28;20198;-61
2022/12/24 05:15:34;;;;;;;18.37;4.17;;;11.00;99.90;;;;;;5083266;28;20611;-61
2022/12/24 05:18:00;;;;;;;18.17;4.37;;;11.00;99.90;;;;;;5082904;28;20239;-63
2022/12/24 05:20:27;;;;;;;21.93;4.97;;;11.00;99.90;;;;;;5080374;28;20514;-63
2022/12/24 05:28:25;;;;;;;19.90;4.43;;;10.90;99.90;;;;;;5081333;28;20296;-62
2022/12/24 05:30:51;;;;;;;20.57;4.47;;;10.90;99.90;;;;;;5083277;28;20194;-61
2022/12/24 05:33:18;;;;;;;13.50;4.33;;;11.00;99.90;;;;;;5081930;28;20289;-63
2022/12/24 05:35:45;;;;;;;19.07;5.80;;;10.90;99.90;;;;;;5082974;28;20208;-63
2022/12/24 05:38:12;;;;;;;18.23;4.63;;;11.00;99.90;;;;;;5081991;28;20198;-62
2022/12/24 05:40:39;;;;;;;24.00;5.10;;;10.90;99.90;;;;;;5083403;28;20609;-61
2022/12/24 05:43:05;;;;;;;18.93;5.40;;;11.00;99.90;;;;;;5079828;28;20203;-61
2022/12/24 05:45:32;;;;;;;21.17;5.57;;;11.00;99.90;;;;;;5081364;28;20206;-62
2022/12/24 05:47:59;;;;;;;22.37;4.50;;;11.00;99.90;;;;;;5082270;28;20284;-62
2022/12/24 05:50:26;;;;;;;22.60;4.80;;;11.00;99.90;;;;;;5081625;28;20293;-63
2022/12/24 05:52:53;;;;;;;14.70;4.13;;;11.00;99.90;;;;;;5081818;28;20206;-62
2022/12/24 05:55:20;;;;;;;21.07;4.77;;;11.00;99.90;;;;;;5082012;28;20702;-62
2022/12/24 05:57:46;;;;;;;18.90;4.33;;;11.00;99.90;;;;;;5079647;28;20274;-62
2022/12/24 06:00:13;;;;;;;22.07;4.37;;;11.00;99.90;;;;;;5082361;28;20243;-62
2022/12/24 06:02:40;;;;;;;17.27;4.83;;;11.00;99.90;;;;;;5079058;28;20561;-64
2022/12/24 06:05:07;;;;;;;21.57;5.10;;;11.00;99.90;;;;;;5081226;28;20230;-61
2022/12/24 06:07:34;;;;;;;25.83;5.17;;;11.00;99.90;;;;;;5081493;28;20226;-63
2022/12/24 06:10:01;;;;;;;18.57;4.33;;;11.00;99.90;;;;;;5082634;28;20244;-64
2022/12/24 06:12:28;;;;;;;18.00;4.43;;;10.90;99.90;;;;;;5081855;28;20209;-62
2022/12/24 06:14:55;;;;;;;24.80;5.37;;;10.90;99.90;;;;;;5096877;28;20206;-61
2022/12/24 06:17:21;;;;;;;23.53;5.33;;;10.80;99.90;;;;;;5081310;28;20234;-62
2022/12/24 06:19:48;;;;;;;15.07;4.27;;;10.90;99.90;;;;;;5080234;28;20218;-62
2022/12/24 06:22:15;;;;;;;18.43;4.80;;;10.80;99.90;;;;;;5081010;28;20211;-62
2022/12/24 06:24:42;;;;;;;26.23;4.03;;;10.80;99.90;;;;;;5080332;28;20211;-64
2022/12/24 06:27:08;;;;;;;21.23;4.90;;;10.80;99.90;;;;;;5081256;28;20225;-63
2022/12/24 06:29:35;;;;;;;21.53;4.43;;;10.80;99.90;;;;;;5080799;28;20201;-62
2022/12/24 06:32:02;;;;;;;19.00;4.23;;;10.80;99.90;;;;;;5082030;28;20310;-62
2022/12/24 06:34:29;;;;;;;18.73;4.60;;;10.70;99.90;;;;;;5088045;28;20234;-62
2022/12/24 06:36:55;;;;;;;21.37;5.00;;;10.70;99.90;;;;;;5081952;28;20210;-64
2022/12/24 06:39:22;;;;;;;15.83;4.57;;;10.60;99.90;;;;;;5081711;28;20213;-62
2022/12/24 06:41:49;;;;;;;21.10;4.67;;;10.60;99.90;;;;;;5082586;28;20297;-63
2022/12/24 06:44:16;;;;;;;25.27;4.83;;;10.60;99.90;;;;;;5080720;28;20205;-62
2022/12/24 06:46:43;;;;;;;21.50;4.73;;;10.60;99.90;;;;;;5080901;28;20219;-62
2022/12/24 06:49:09;;;;;;;26.17;5.03;;;10.60;99.90;;;;;;5080578;28;20195;-63
2022/12/24 06:51:36;;;;;;;17.40;4.50;;;10.50;99.90;;;;;;5081056;28;20768;-63
2022/12/24 06:54:03;;;;;;;18.93;4.87;;;10.50;99.90;;;;;;5081023;28;20205;-62
2022/12/24 06:56:30;;;;;;;18.00;4.37;;;10.50;99.90;;;;;;5080956;28;20305;-61
2022/12/24 06:58:57;;;;;;;14.30;4.17;;;10.60;99.90;;;;;;5078627;28;20712;-64
2022/12/24 07:01:31;;;;;;;19.90;4.33;;;10.50;99.90;;;;;;5073479;28;20254;-64
2022/12/24 07:03:58;;;;;;;13.27;4.83;;;10.50;99.90;;;;;;5079370;28;20294;-63
2022/12/24 07:06:27;;;;;;;16.03;4.00;;;10.50;99.90;;;;;;5081498;28;20227;-63
2022/12/24 07:08:54;;;;;;;27.37;3.50;;;10.40;99.90;;;;;;5075350;28;20223;-63
2022/12/24 07:11:22;;;;;;;17.93;4.03;;;10.50;99.90;;;;;;5081015;28;20218;-63
2022/12/24 07:13:49;;;;;;;19.03;4.77;;;10.50;99.90;;;;;;5079936;28;20296;-62
2022/12/24 07:16:16;;;;;;;20.20;3.47;;;10.50;99.90;;;;;;5097602;28;20642;-63
2022/12/24 07:18:44;;;;;;;21.77;4.53;;;10.50;99.90;;;;;;5079481;28;20238;-62
2022/12/24 07:21:10;;;;;;;20.97;4.97;;;10.50;99.90;;;;;;5078514;28;20204;-62
2022/12/24 07:23:37;;;;;;;20.00;3.73;;;10.50;99.90;;;;;;5081167;28;20213;-62
2022/12/24 07:26:06;;;;;;;23.43;4.40;;;10.50;99.90;;;;;;5080121;28;20221;-63
2022/12/24 07:28:33;;;;;;;17.30;4.20;;;10.50;99.90;;;;;;5078570;28;20206;-62
2022/12/24 07:31:00;;;;;;;22.80;4.57;;;10.50;99.90;;;;;;5080383;28;20654;-63
2022/12/24 07:33:27;;;;;;;16.30;4.10;;;10.40;99.90;;;;;;5078436;28;20197;-64
2022/12/24 07:36:01;;;;;;;20.90;5.23;;;10.40;99.90;;;;;;5079867;28;20222;-65
2022/12/24 07:38:29;;;;;;;22.43;3.90;;;10.40;99.90;;;;;;5079064;28;20206;-64
2022/12/24 07:40:57;;;;;;;27.87;4.80;;;10.30;99.90;;;;;;5080497;28;20202;-63
2022/12/24 07:43:25;;;;;;;20.47;4.90;;;10.30;99.90;;;;;;5078385;28;20289;-64
2022/12/24 07:45:56;;;;;;;28.80;4.87;;;10.30;99.90;;;;;;5079097;28;20294;-63
2022/12/24 07:48:25;;;;;;;23.30;5.37;;;10.30;99.90;;;;;;5078178;28;20332;-63
2022/12/24 07:50:52;;;;;;;27.40;5.73;;;10.20;99.90;;;;;;5080675;28;20198;-63
2022/12/24 07:53:19;;;;;;;19.77;4.77;;;10.20;99.90;;;;;;5078573;28;20305;-64
2022/12/24 07:55:45;;;;;;;17.20;4.57;;;10.20;99.90;;;;;;5079870;28;20219;-63
2022/12/24 07:58:12;;;;;;;19.23;5.00;;;10.20;99.90;;;;;;5076947;28;20206;-63
2022/12/24 08:00:39;;;;;;;14.10;4.40;;;10.20;99.90;;;;;;5080120;28;20217;-62
2022/12/24 08:03:06;;;;;;;15.23;4.50;;;10.20;99.90;;;;;;5080197;28;20204;-63
2022/12/24 08:05:35;;;;;;;19.37;5.23;;;10.20;99.90;;;;;;5067670;28;20563;-62
2022/12/24 08:08:02;;;;;;;25.67;5.03;;;10.20;99.90;;;;;;5076161;28;20309;-63
2022/12/24 08:10:29;;;;;;;25.00;4.43;;;10.30;99.90;;;;;;5074923;28;20222;-64
2022/12/24 08:12:55;;;;;;;19.60;4.63;;;10.30;99.90;;;;;;5075454;28;20207;-63
2022/12/24 08:15:22;;;;;;;17.30;4.27;;;10.30;99.90;;;;;;5074098;28;20305;-65
2022/12/24 08:17:49;;;;;;;20.13;4.17;;;10.20;99.90;;;;;;5077861;28;20242;-62
2022/12/24 08:20:16;;;;;;;20.37;5.20;;;10.30;99.90;;;;;;5077587;28;20286;-62
2022/12/24 08:22:43;;;;;;;23.53;5.53;;;10.30;99.90;;;;;;5076772;28;20226;-62
2022/12/24 08:25:09;;;;;;;21.20;4.67;;;10.30;99.90;;;;;;5078193;28;20697;-62
2022/12/24 08:27:36;;;;;;;26.27;5.97;;;10.40;99.90;;;;;;5075209;28;20219;-63
2022/12/24 08:30:04;;;;;;;18.03;4.70;;;10.40;99.90;;;;;;5075880;28;20199;-62
2022/12/24 08:32:31;;;;;;;20.83;4.87;;;10.40;99.90;;;;;;5076113;28;20742;-63
2022/12/24 08:34:58;;;;;;;19.23;5.00;;;10.40;99.90;;;;;;5075431;28;20288;-62
2022/12/24 08:37:24;;;;;;;20.23;5.17;;;10.50;99.90;;;;;;5074567;28;20937;-62
2022/12/24 08:39:51;;;;;;;18.33;4.63;;;10.50;99.90;;;;;;5072828;28;20206;-62
2022/12/24 08:42:18;;;;;;;25.63;5.37;;;10.60;99.90;;;;;;5072682;28;20255;-63
2022/12/24 08:44:45;;;;;;;24.70;4.93;;;10.60;99.90;;;;;;5073425;28;20203;-63
2022/12/24 08:47:12;;;;;;;19.93;4.93;;;10.60;99.90;;;;;;5071595;28;20681;-65
2022/12/24 08:49:39;;;;;;;16.63;4.87;;;10.60;99.90;;;;;;5072026;28;20229;-64
2022/12/24 08:52:06;;;;;;;20.77;5.03;;;10.60;99.90;;;;;;5071163;28;20202;-63
2022/12/24 08:54:33;;;;;;;22.73;4.50;;;10.70;99.90;;;;;;5074058;28;20197;-62
2022/12/24 08:56:59;;;;;;;16.67;4.37;;;10.70;99.90;;;;;;5075681;28;20685;-62
2022/12/24 08:59:26;;;;;;;17.43;4.40;;;10.70;99.90;;;;;;5076190;28;20213;-64
2022/12/24 09:01:53;;;;;;;25.93;5.47;;;10.70;99.90;;;;;;5076630;28;20596;-63
2022/12/24 09:04:20;;;;;;;20.20;4.57;;;10.70;99.90;;;;;;5076417;28;20630;-62
2022/12/24 09:06:47;;;;;;;27.20;4.40;;;10.70;99.90;;;;;;5070995;28;20243;-62
2022/12/24 09:09:13;;;;;;;18.33;5.47;;;10.70;99.90;;;;;;5070949;28;20570;-61
2022/12/24 09:11:40;;;;;;;15.67;4.20;;;10.70;99.90;;;;;;5070193;28;20305;-63
2022/12/24 09:14:07;;;;;;;20.87;4.67;;;10.80;99.90;;;;;;5072847;28;20210;-63
2022/12/24 09:16:34;;;;;;;24.10;5.00;;;10.80;99.90;;;;;;5077891;28;20571;-62
2022/12/24 09:19:00;;;;;;;14.77;3.83;;;10.90;99.90;;;;;;5072218;28;20206;-62
2022/12/24 09:21:28;;;;;;;22.90;5.30;;;11.00;99.90;;;;;;5069151;28;20195;-62
2022/12/24 09:23:54;;;;;;;25.80;4.83;;;11.10;99.90;;;;;;5072452;28;20198;-62
2022/12/24 09:26:25;;;;;;;21.30;4.40;;;11.10;99.90;;;;;;5074467;28;20210;-63
2022/12/24 09:28:52;;;;;;;28.87;4.63;;;11.10;99.90;;;;;;5072879;28;20222;-64
2022/12/24 09:31:20;;;;;;;15.67;4.70;;;11.10;99.90;;;;;;5069742;28;20348;-62
2022/12/24 09:33:49;;;;;;;26.37;5.13;;;11.10;99.90;;;;;;5069706;28;20233;-63
2022/12/24 09:36:17;;;;;;;21.97;5.33;;;11.10;99.90;;;;;;5073757;28;20199;-61
2022/12/24 09:38:44;;;;;;;27.47;5.90;;;11.10;99.90;;;;;;5068980;28;20223;-63
2022/12/24 09:41:34;;;;;;;22.33;5.23;;;11.10;99.90;;;;;;5066340;28;21033;-63
2022/12/24 09:44:20;;;;;;;16.70;5.43;;;11.10;99.90;;;;;;5062806;28;20207;-63
2022/12/24 09:46:51;;;;;;;25.33;4.83;;;11.10;99.90;;;;;;5066187;28;20211;-62
2022/12/24 09:49:25;;;;;;;18.53;4.37;;;11.10;99.90;;;;;;5063506;28;20655;-62
2022/12/24 09:51:59;;;;;;;22.87;7.73;;;11.20;99.90;;;;;;5077899;28;20198;-62
2022/12/24 09:54:40;;;;;;;25.00;6.07;;;11.20;99.90;;;;;;5074909;28;20686;-62
2022/12/24 09:57:24;;;;;;;22.33;4.93;;;11.20;99.90;;;;;;5075188;28;20678;-62
2022/12/24 09:59:51;;;;;;;17.60;5.03;;;11.30;99.90;;;;;;5077006;28;20207;-61
2022/12/24 10:02:19;;;;;;;25.07;5.03;;;11.40;99.90;;;;;;5078008;28;20377;-63
2022/12/24 10:04:47;;;;;;;22.77;5.40;;;11.50;99.90;;;;;;5076387;28;20207;-62
2022/12/24 10:07:32;;;;;;;28.37;5.53;;;11.40;99.90;;;;;;5079991;28;20327;-62
2022/12/24 10:10:06;;;;;;;19.10;5.13;;;11.50;99.90;;;;;;5080022;28;20238;-63
2022/12/24 10:12:41;;;;;;;21.37;5.37;;;11.50;99.90;;;;;;5080281;28;20202;-63
2022/12/24 10:15:26;;;;;;;20.37;4.83;;;11.40;99.90;;;;;;5081368;28;20208;-62
2022/12/24 10:18:18;;;;;;;18.83;4.60;;;11.40;99.90;;;;;;5079517;28;20248;-62
2022/12/24 10:20:47;;;;;;;23.80;4.70;;;11.40;99.90;;;;;;5078186;28;20203;-63
2022/12/24 10:23:18;;;;;;;21.33;4.87;;;11.40;99.90;;;;;;5081600;28;20268;-62
2022/12/24 10:26:02;;;;;;;19.10;5.60;;;11.40;99.90;;;;;;5080900;28;20209;-64
2022/12/24 10:28:52;;;;;;;16.27;4.83;;;11.30;99.90;;;;;;5078206;28;20215;-62
2022/12/24 10:31:47;;;;;;;21.40;4.60;;;11.40;99.90;;;;;;5078558;28;20194;-62
2022/12/24 10:34:23;;;;;;;18.87;4.57;;;11.40;99.90;;;;;;5057810;28;20286;-62
2022/12/24 10:36:51;;;;;;;16.40;4.90;;;11.40;99.90;;;;;;5080208;28;20195;-62
2022/12/24 10:39:20;;;;;;;19.10;5.33;;;11.40;99.90;;;;;;5077920;28;20206;-62
2022/12/24 10:41:49;;;;;;;20.57;5.00;;;11.30;99.90;;;;;;5080423;28;20658;-62
2022/12/24 10:44:21;;;;;;;14.53;3.87;;;11.30;99.90;;;;;;5084784;28;20199;-64
2022/12/24 10:46:47;;;;;;;16.63;4.20;;;11.40;99.90;;;;;;5080473;28;20640;-62
2022/12/24 10:49:59;;;;;;;25.73;5.17;;;11.50;99.90;;;;;;5079989;28;20662;-62
2022/12/24 10:52:31;;;;;;;18.03;4.97;;;11.50;99.90;;;;;;5080232;28;20206;-62
2022/12/24 10:55:14;;;;;;;17.07;4.63;;;11.50;99.90;;;;;;5081066;28;20198;-62
2022/12/24 10:57:43;;;;;;;24.80;5.20;;;11.50;99.90;;;;;;5076775;28;20237;-63
2022/12/24 11:00:22;;;;;;;20.40;5.07;;;11.70;99.90;;;;;;5084851;28;20309;-62
2022/12/24 11:03:11;;;;;;;14.80;4.53;;;11.80;99.90;;;;;;5080197;28;20216;-62
2022/12/24 11:05:38;;;;;;;20.70;4.33;;;11.70;99.90;;;;;;5078872;28;20217;-64
2022/12/24 11:08:16;;;;;;;22.73;4.17;;;11.70;99.90;;;;;;5078797;28;20223;-65
2022/12/24 11:11:01;;;;;;;18.77;3.70;;;11.70;99.90;;;;;;5079158;28;20240;-63
2022/12/24 11:13:38;;;;;;;20.53;5.13;;;11.70;99.90;;;;;;5076579;28;20284;-69
2022/12/24 11:16:24;;;;;;;21.13;4.63;;;11.70;99.90;;;;;;5076576;28;20205;-63
2022/12/24 11:18:54;;;;;;;20.87;5.03;;;11.80;99.90;;;;;;5078266;28;20290;-63
2022/12/24 11:21:27;;;;;;;20.37;3.93;;;11.70;99.90;;;;;;5078776;28;20283;-62
2022/12/24 11:23:59;;;;;;;19.77;4.27;;;11.70;99.90;;;;;;5079915;28;20280;-62
2022/12/24 11:26:29;;;;;;;30.40;5.13;;;11.80;99.90;;;;;;5078331;28;20197;-62
2022/12/24 11:29:15;;;;;;;21.20;4.10;;;12.00;99.90;;;;;;5078884;28;20559;-62
2022/12/24 11:31:44;;;;;;;14.50;3.83;;;11.90;99.90;;;;;;5081201;28;20271;-62
2022/12/24 11:34:23;;;;;;;18.40;4.17;;;12.00;99.90;;;;;;5078375;28;20202;-62
2022/12/24 11:36:51;;;;;;;16.63;3.67;;;11.90;99.90;;;;;;5078904;28;20613;-62
2022/12/24 11:39:25;;;;;;;15.83;4.17;;;11.90;99.90;;;;;;5080351;28;20290;-62
2022/12/24 11:41:53;;;;;;;16.30;3.60;;;12.00;99.90;;;;;;5079886;28;20309;-61
2022/12/24 11:44:27;;;;;;;14.07;3.43;;;12.00;99.90;;;;;;5078254;28;20201;-61
2022/12/24 11:46:58;;;;;;;18.07;3.70;;;12.00;99.90;;;;;;5080063;28;20208;-61
2022/12/24 11:49:30;;;;;;;16.30;3.30;;;12.00;99.90;;;;;;5079382;28;20259;-62
2022/12/24 11:52:08;;;;;;;13.13;4.13;;;12.00;99.90;;;;;;5078867;28;20288;-62
2022/12/24 11:54:52;;;;;;;19.40;4.80;;;12.00;99.90;;;;;;5079834;28;20229;-62
2022/12/24 11:57:21;;;;;;;19.10;4.10;;;11.90;99.90;;;;;;5078796;28;20216;-61
2022/12/24 11:59:51;;;;;;;13.63;3.13;;;11.80;99.90;;;;;;5079433;28;20661;-62
2022/12/24 12:02:25;;;;;;;16.07;3.10;;;11.70;99.90;;;;;;5080048;28;20259;-63
2022/12/24 12:05:04;;;;;;;21.37;3.30;;;11.60;99.90;;;;;;5073985;28;20586;-64
2022/12/24 12:07:34;;;;;;;17.93;3.07;;;11.60;99.90;;;;;;5076284;28;20226;-63
2022/12/24 12:10:14;;;;;;;20.97;4.13;;;11.70;99.90;;;;;;5080817;28;20204;-62
2022/12/24 12:12:45;;;;;;;12.43;3.40;;;11.70;99.90;;;;;;5076912;28;20305;-61
2022/12/24 12:15:22;;;;;;;14.20;2.87;;;11.70;99.90;;;;;;5078804;28;20802;-61
2022/12/24 12:17:55;;;;;;;11.67;3.47;;;11.70;99.90;;;;;;5078873;28;20287;-62
2022/12/24 12:20:38;;;;;;;16.97;2.90;;;11.80;99.90;;;;;;5077408;28;20603;-62
2022/12/24 12:23:14;;;;;;;16.50;3.67;;;11.80;99.90;;;;;;5076305;28;20222;-61
2022/12/24 12:25:54;;;;;;;18.83;3.10;;;11.70;99.90;;;;;;5079554;28;20291;-61
2022/12/24 12:28:21;;;;;;;18.90;3.50;;;11.60;99.90;;;;;;5076276;28;20219;-61
2022/12/24 12:31:15;;;;;;;13.10;2.97;;;11.60;99.90;;;;;;5089882;28;20313;-63
2022/12/24 12:33:48;;;;;;;13.77;2.50;;;11.60;99.90;;;;;;5075720;28;20214;-62
2022/12/24 12:36:19;;;;;;;20.57;3.20;;;11.60;99.90;;;;;;5074124;28;20229;-62
2022/12/24 12:38:47;;;;;;;11.40;2.97;;;11.50;99.90;;;;;;5074025;28;20579;-62
2022/12/24 12:41:36;;;;;;;18.80;3.27;;;11.50;99.90;;;;;;5075373;28;20214;-62
2022/12/24 12:44:43;;;;;;;13.97;2.87;;;11.50;99.90;;;;;;5072140;28;20205;-62
2022/12/24 12:47:16;;;;;;;18.73;3.07;;;11.60;99.90;;;;;;5047497;28;20599;-62
2022/12/24 12:50:01;;;;;;;15.00;3.10;;;11.60;99.90;;;;;;5074978;28;20272;-63
2022/12/24 12:52:46;;;;;;;16.97;4.03;;;11.70;99.90;;;;;;5075361;28;20215;-66
2022/12/24 12:55:32;;;;;;;15.57;3.27;;;11.60;99.90;;;;;;5072929;28;20205;-62
2022/12/24 12:58:12;;;;;;;15.80;3.17;;;11.70;99.90;;;;;;5071537;28;20534;-62
2022/12/24 13:00:44;;;;;;;22.00;3.30;;;11.80;99.90;;;;;;5076539;28;20281;-63
2022/12/24 13:03:41;;;;;;;21.03;3.73;;;11.70;99.90;;;;;;5078089;28;20206;-63